sensor_id;sensor_type;location;lat;lon;timestamp;pressure;altitude;pressure_sealevel;temperature;humidity
54022;BME280;39936;51.058;17.220;2023-07-13T00:02:32;101192.26;;;18.59;100.00
54022;BME280;39936;51.058;17.220;2023-07-13T00:09:52;101196.63;;;18.47;100.00
54022;BME280;39936;51.058;17.220;2023-07-13T00:13:20;101208.23;;;18.37;100.00
54022;BME280;39936;51.058;17.220;2023-07-13T00:20:37;101214.20;;;18.34;100.00
54022;BME280;39936;51.058;17.220;2023-07-13T00:23:55;101205.65;;;18.36;100.00
54022;BME280;39936;51.058;17.220;2023-07-13T00:31:17;101214.29;;;18.37;100.00
54022;BME280;39936;51.058;17.220;2023-07-13T00:34:30;101218.13;;;18.33;100.00
54022;BME280;39936;51.058;17.220;2023-07-13T00:37:50;101223.49;;;18.33;100.00
54022;BME280;39936;51.058;17.220;2023-07-13T00:41:10;101222.12;;;18.22;100.00
54022;BME280;39936;51.058;17.220;2023-07-13T00:44:24;101221.55;;;18.16;100.00
54022;BME280;39936;51.058;17.220;2023-07-13T00:47:42;101236.70;;;18.17;100.00
54022;BME280;39936;51.058;17.220;2023-07-13T00:51:01;101214.71;;;18.05;100.00
54022;BME280;39936;51.058;17.220;2023-07-13T00:54:30;101237.23;;;18.19;100.00
54022;BME280;39936;51.058;17.220;2023-07-13T00:57:43;101231.08;;;18.22;100.00
54022;BME280;39936;51.058;17.220;2023-07-13T01:01:00;101226.00;;;18.22;100.00
54022;BME280;39936;51.058;17.220;2023-07-13T01:04:14;101223.31;;;18.24;100.00
54022;BME280;39936;51.058;17.220;2023-07-13T01:07:32;101225.43;;;18.26;100.00
54022;BME280;39936;51.058;17.220;2023-07-13T01:10:55;101233.80;;;18.22;100.00
54022;BME280;39936;51.058;17.220;2023-07-13T01:14:11;101259.89;;;18.31;100.00
54022;BME280;39936;51.058;17.220;2023-07-13T01:17:30;101251.70;;;18.20;100.00
54022;BME280;39936;51.058;17.220;2023-07-13T01:24:15;101251.18;;;18.37;100.00
54022;BME280;39936;51.058;17.220;2023-07-13T01:27:32;101211.13;;;18.20;100.00
54022;BME280;39936;51.058;17.220;2023-07-13T01:30:48;101217.85;;;18.23;100.00
54022;BME280;39936;51.058;17.220;2023-07-13T01:34:03;101208.70;;;18.19;100.00
54022;BME280;39936;51.058;17.220;2023-07-13T01:37:23;101205.31;;;18.08;100.00
54022;BME280;39936;51.058;17.220;2023-07-13T01:40:37;101204.85;;;18.05;100.00
54022;BME280;39936;51.058;17.220;2023-07-13T01:43:56;101202.98;;;18.03;100.00
54022;BME280;39936;51.058;17.220;2023-07-13T01:47:15;101168.45;;;17.80;100.00
54022;BME280;39936;51.058;17.220;2023-07-13T01:50:34;101174.66;;;17.78;100.00
54022;BME280;39936;51.058;17.220;2023-07-13T01:53:50;101173.66;;;17.67;100.00
54022;BME280;39936;51.058;17.220;2023-07-13T01:57:04;101175.86;;;17.61;100.00
54022;BME280;39936;51.058;17.220;2023-07-13T02:00:22;101185.02;;;17.57;100.00
54022;BME280;39936;51.058;17.220;2023-07-13T02:03:36;101190.15;;;17.50;100.00
54022;BME280;39936;51.058;17.220;2023-07-13T02:06:53;101189.73;;;17.46;100.00
54022;BME280;39936;51.058;17.220;2023-07-13T02:10:09;101187.73;;;17.48;100.00
54022;BME280;39936;51.058;17.220;2023-07-13T02:13:25;101186.05;;;17.48;100.00
54022;BME280;39936;51.058;17.220;2023-07-13T02:16:38;101171.21;;;17.48;100.00
54022;BME280;39936;51.058;17.220;2023-07-13T02:19:51;101161.28;;;17.41;100.00
54022;BME280;39936;51.058;17.220;2023-07-13T02:23:19;101160.38;;;17.36;100.00
54022;BME280;39936;51.058;17.220;2023-07-13T02:27:10;101158.47;;;17.34;100.00
54022;BME280;39936;51.058;17.220;2023-07-13T02:30:27;101168.48;;;17.36;100.00
54022;BME280;39936;51.058;17.220;2023-07-13T02:33:43;101178.27;;;17.35;100.00
54022;BME280;39936;51.058;17.220;2023-07-13T02:37:00;101177.59;;;17.23;100.00
54022;BME280;39936;51.058;17.220;2023-07-13T02:40:26;101172.77;;;17.12;100.00
54022;BME280;39936;51.058;17.220;2023-07-13T02:43:42;101168.94;;;17.04;100.00
54022;BME280;39936;51.058;17.220;2023-07-13T02:47:03;101158.08;;;16.85;100.00
54022;BME280;39936;51.058;17.220;2023-07-13T02:50:20;101160.86;;;16.78;100.00
54022;BME280;39936;51.058;17.220;2023-07-13T02:53:33;101162.15;;;16.87;100.00
54022;BME280;39936;51.058;17.220;2023-07-13T02:56:59;101169.92;;;16.91;100.00
54022;BME280;39936;51.058;17.220;2023-07-13T03:00:13;101170.55;;;16.91;100.00
54022;BME280;39936;51.058;17.220;2023-07-13T03:03:46;101185.38;;;16.97;100.00
54022;BME280;39936;51.058;17.220;2023-07-13T03:06:59;101182.58;;;17.00;100.00
54022;BME280;39936;51.058;17.220;2023-07-13T03:10:24;101180.84;;;16.93;100.00
54022;BME280;39936;51.058;17.220;2023-07-13T03:13:43;101181.53;;;16.78;100.00
54022;BME280;39936;51.058;17.220;2023-07-13T03:16:59;101172.37;;;16.80;100.00
54022;BME280;39936;51.058;17.220;2023-07-13T03:20:42;101180.27;;;16.95;100.00
54022;BME280;39936;51.058;17.220;2023-07-13T03:24:04;101182.23;;;17.18;100.00
54022;BME280;39936;51.058;17.220;2023-07-13T03:27:18;101184.48;;;17.48;100.00
54022;BME280;39936;51.058;17.220;2023-07-13T03:31:05;101185.26;;;17.78;100.00
54022;BME280;39936;51.058;17.220;2023-07-13T03:34:44;101174.30;;;18.18;100.00
54022;BME280;39936;51.058;17.220;2023-07-13T03:38:12;101180.64;;;18.26;100.00
54022;BME280;39936;51.058;17.220;2023-07-13T03:42:02;101189.20;;;18.57;100.00
54022;BME280;39936;51.058;17.220;2023-07-13T03:45:48;101189.34;;;18.64;100.00
54022;BME280;39936;51.058;17.220;2023-07-13T03:49:25;101180.02;;;18.19;100.00
54022;BME280;39936;51.058;17.220;2023-07-13T03:52:49;101177.68;;;18.17;100.00
54022;BME280;39936;51.058;17.220;2023-07-13T03:56:05;101185.94;;;18.04;100.00
54022;BME280;39936;51.058;17.220;2023-07-13T03:59:23;101181.93;;;18.09;100.00
54022;BME280;39936;51.058;17.220;2023-07-13T04:02:54;101196.23;;;18.15;100.00
54022;BME280;39936;51.058;17.220;2023-07-13T04:06:15;101199.94;;;18.15;100.00
54022;BME280;39936;51.058;17.220;2023-07-13T04:09:45;101197.64;;;18.20;100.00
54022;BME280;39936;51.058;17.220;2023-07-13T04:12:58;101206.22;;;18.35;100.00
54022;BME280;39936;51.058;17.220;2023-07-13T04:16:12;101208.78;;;18.59;100.00
54022;BME280;39936;51.058;17.220;2023-07-13T04:19:29;101209.68;;;18.89;100.00
54022;BME280;39936;51.058;17.220;2023-07-13T04:22:46;101211.52;;;19.10;100.00
54022;BME280;39936;51.058;17.220;2023-07-13T04:26:05;101221.41;;;19.18;100.00
54022;BME280;39936;51.058;17.220;2023-07-13T04:29:20;101233.09;;;19.10;100.00
54022;BME280;39936;51.058;17.220;2023-07-13T04:32:39;101251.59;;;19.10;100.00
54022;BME280;39936;51.058;17.220;2023-07-13T04:35:59;101266.96;;;18.99;100.00
54022;BME280;39936;51.058;17.220;2023-07-13T04:39:14;101287.65;;;18.82;100.00
54022;BME280;39936;51.058;17.220;2023-07-13T04:42:32;101327.53;;;18.59;100.00
54022;BME280;39936;51.058;17.220;2023-07-13T04:45:53;101352.13;;;18.34;100.00
54022;BME280;39936;51.058;17.220;2023-07-13T04:49:12;101394.41;;;18.33;100.00
54022;BME280;39936;51.058;17.220;2023-07-13T04:52:45;101427.49;;;18.05;100.00
54022;BME280;39936;51.058;17.220;2023-07-13T05:00:09;101521.52;;;17.08;100.00
54022;BME280;39936;51.058;17.220;2023-07-13T05:03:28;101512.82;;;16.59;100.00
54022;BME280;39936;51.058;17.220;2023-07-13T05:06:50;101483.59;;;16.22;100.00
54022;BME280;39936;51.058;17.220;2023-07-13T05:11:00;101479.53;;;15.85;100.00
54022;BME280;39936;51.058;17.220;2023-07-13T05:15:03;101492.34;;;15.58;100.00
54022;BME280;39936;51.058;17.220;2023-07-13T05:18:55;101483.12;;;15.41;100.00
54022;BME280;39936;51.058;17.220;2023-07-13T05:22:12;101485.70;;;15.35;100.00
54022;BME280;39936;51.058;17.220;2023-07-13T05:25:29;101447.09;;;15.15;100.00
54022;BME280;39936;51.058;17.220;2023-07-13T05:28:47;101459.17;;;15.19;100.00
54022;BME280;39936;51.058;17.220;2023-07-13T05:32:06;101468.56;;;15.12;100.00
54022;BME280;39936;51.058;17.220;2023-07-13T05:35:27;101445.51;;;14.86;100.00
54022;BME280;39936;51.058;17.220;2023-07-13T05:38:42;101452.86;;;14.95;100.00
54022;BME280;39936;51.058;17.220;2023-07-13T05:42:01;101445.85;;;14.93;100.00
54022;BME280;39936;51.058;17.220;2023-07-13T05:45:30;101424.23;;;14.73;100.00
54022;BME280;39936;51.058;17.220;2023-07-13T05:48:48;101471.62;;;14.94;100.00
54022;BME280;39936;51.058;17.220;2023-07-13T05:52:34;101477.60;;;14.97;100.00
54022;BME280;39936;51.058;17.220;2023-07-13T05:55:49;101435.89;;;14.80;100.00
54022;BME280;39936;51.058;17.220;2023-07-13T05:59:10;101412.02;;;14.91;100.00
54022;BME280;39936;51.058;17.220;2023-07-13T06:02:28;101371.73;;;14.82;100.00
54022;BME280;39936;51.058;17.220;2023-07-13T06:05:43;101361.16;;;14.78;100.00
54022;BME280;39936;51.058;17.220;2023-07-13T06:09:01;101357.18;;;14.77;100.00
54022;BME280;39936;51.058;17.220;2023-07-13T06:12:29;101344.71;;;14.76;100.00
54022;BME280;39936;51.058;17.220;2023-07-13T06:16:10;101332.66;;;14.78;100.00
54022;BME280;39936;51.058;17.220;2023-07-13T06:19:29;101322.59;;;14.65;100.00
54022;BME280;39936;51.058;17.220;2023-07-13T06:22:50;101364.10;;;14.94;100.00
54022;BME280;39936;51.058;17.220;2023-07-13T06:26:53;101371.28;;;14.98;100.00
54022;BME280;39936;51.058;17.220;2023-07-13T06:30:10;101384.44;;;15.09;100.00
54022;BME280;39936;51.058;17.220;2023-07-13T06:33:24;101390.97;;;15.22;100.00
54022;BME280;39936;51.058;17.220;2023-07-13T06:36:41;101386.20;;;15.34;100.00
54022;BME280;39936;51.058;17.220;2023-07-13T06:39:58;101376.88;;;15.45;100.00
54022;BME280;39936;51.058;17.220;2023-07-13T06:43:15;101385.90;;;15.59;100.00
54022;BME280;39936;51.058;17.220;2023-07-13T06:46:32;101398.68;;;15.82;100.00
54022;BME280;39936;51.058;17.220;2023-07-13T06:49:51;101406.35;;;16.11;100.00
54022;BME280;39936;51.058;17.220;2023-07-13T06:53:12;101427.05;;;16.27;100.00
54022;BME280;39936;51.058;17.220;2023-07-13T06:56:58;101440.04;;;16.29;100.00
54022;BME280;39936;51.058;17.220;2023-07-13T07:00:30;101454.47;;;16.50;100.00
54022;BME280;39936;51.058;17.220;2023-07-13T07:04:09;101471.92;;;16.54;100.00
54022;BME280;39936;51.058;17.220;2023-07-13T07:07:31;101505.45;;;16.43;100.00
54022;BME280;39936;51.058;17.220;2023-07-13T07:10:55;101530.15;;;16.39;100.00
54022;BME280;39936;51.058;17.220;2023-07-13T07:14:18;101560.48;;;16.28;100.00
54022;BME280;39936;51.058;17.220;2023-07-13T07:17:46;101573.08;;;16.23;100.00
54022;BME280;39936;51.058;17.220;2023-07-13T07:21:05;101577.18;;;16.17;100.00
54022;BME280;39936;51.058;17.220;2023-07-13T07:24:33;101563.65;;;16.14;100.00
54022;BME280;39936;51.058;17.220;2023-07-13T07:27:58;101531.21;;;16.01;100.00
54022;BME280;39936;51.058;17.220;2023-07-13T07:31:12;101556.22;;;16.22;100.00
54022;BME280;39936;51.058;17.220;2023-07-13T07:35:17;101554.57;;;16.27;100.00
54022;BME280;39936;51.058;17.220;2023-07-13T07:38:43;101525.73;;;16.33;100.00
54022;BME280;39936;51.058;17.220;2023-07-13T07:41:57;101503.58;;;16.34;100.00
54022;BME280;39936;51.058;17.220;2023-07-13T07:49:19;101440.05;;;15.89;100.00
54022;BME280;39936;51.058;17.220;2023-07-13T07:52:49;101413.66;;;15.81;100.00
54022;BME280;39936;51.058;17.220;2023-07-13T07:56:14;101411.55;;;15.81;100.00
54022;BME280;39936;51.058;17.220;2023-07-13T07:59:28;101420.75;;;15.87;100.00
54022;BME280;39936;51.058;17.220;2023-07-13T08:03:27;101423.69;;;15.91;100.00
54022;BME280;39936;51.058;17.220;2023-07-13T08:06:43;101384.05;;;15.82;100.00
54022;BME280;39936;51.058;17.220;2023-07-13T08:10:02;101408.03;;;16.08;100.00
54022;BME280;39936;51.058;17.220;2023-07-13T08:13:32;101407.49;;;16.17;100.00
54022;BME280;39936;51.058;17.220;2023-07-13T08:16:50;101397.67;;;16.34;100.00
54022;BME280;39936;51.058;17.220;2023-07-13T08:20:10;101390.76;;;16.38;100.00
54022;BME280;39936;51.058;17.220;2023-07-13T08:27:28;101447.10;;;17.22;100.00
54022;BME280;39936;51.058;17.220;2023-07-13T08:30:45;101461.44;;;17.68;100.00
54022;BME280;39936;51.058;17.220;2023-07-13T08:38:25;101479.01;;;18.45;100.00
54022;BME280;39936;51.058;17.220;2023-07-13T08:45:47;101495.49;;;18.98;100.00
54022;BME280;39936;51.058;17.220;2023-07-13T08:49:14;101496.05;;;19.04;100.00
54022;BME280;39936;51.058;17.220;2023-07-13T08:52:43;101513.03;;;19.22;100.00
54022;BME280;39936;51.058;17.220;2023-07-13T09:00:01;101516.41;;;19.41;100.00
54022;BME280;39936;51.058;17.220;2023-07-13T09:11:20;101518.02;;;20.19;100.00
54022;BME280;39936;51.058;17.220;2023-07-13T09:14:51;101516.34;;;20.43;100.00
54022;BME280;39936;51.058;17.220;2023-07-13T09:18:18;101501.52;;;20.58;94.13
54022;BME280;39936;51.058;17.220;2023-07-13T09:21:41;101510.84;;;20.54;92.43
54022;BME280;39936;51.058;17.220;2023-07-13T09:28:44;101518.43;;;20.27;95.96
54022;BME280;39936;51.058;17.220;2023-07-13T09:32:06;101519.41;;;20.08;92.91
54022;BME280;39936;51.058;17.220;2023-07-13T09:35:59;101523.16;;;20.00;96.75
54022;BME280;39936;51.058;17.220;2023-07-13T09:42:48;101514.77;;;20.49;98.27
54022;BME280;39936;51.058;17.220;2023-07-13T09:46:02;101511.80;;;20.85;97.72
54022;BME280;39936;51.058;17.220;2023-07-13T09:49:58;101508.17;;;21.20;96.24
54022;BME280;39936;51.058;17.220;2023-07-13T09:57:13;101511.36;;;21.20;85.76
54022;BME280;39936;51.058;17.220;2023-07-13T10:00:41;101488.15;;;21.11;89.64
54022;BME280;39936;51.058;17.220;2023-07-13T10:04:33;101475.93;;;21.40;87.46
54022;BME280;39936;51.058;17.220;2023-07-13T10:08:00;101487.66;;;21.66;82.21
54022;BME280;39936;51.058;17.220;2023-07-13T10:11:29;101486.08;;;21.87;80.75
54022;BME280;39936;51.058;17.220;2023-07-13T10:14:48;101480.99;;;21.78;79.88
54022;BME280;39936;51.058;17.220;2023-07-13T10:18:29;101453.41;;;21.74;82.99
54022;BME280;39936;51.058;17.220;2023-07-13T10:21:54;101477.84;;;21.97;83.98
54022;BME280;39936;51.058;17.220;2023-07-13T10:25:34;101488.93;;;22.04;80.31
54022;BME280;39936;51.058;17.220;2023-07-13T10:28:51;101500.85;;;22.19;78.86
54022;BME280;39936;51.058;17.220;2023-07-13T10:32:31;101502.96;;;22.34;79.57
54022;BME280;39936;51.058;17.220;2023-07-13T10:36:44;101495.54;;;22.45;77.96
54022;BME280;39936;51.058;17.220;2023-07-13T10:40:35;101507.95;;;22.32;78.41
54022;BME280;39936;51.058;17.220;2023-07-13T10:43:54;101508.30;;;22.34;78.33
54022;BME280;39936;51.058;17.220;2023-07-13T10:47:24;101507.67;;;22.64;78.42
54022;BME280;39936;51.058;17.220;2023-07-13T10:51:20;101477.42;;;22.89;79.70
54022;BME280;39936;51.058;17.220;2023-07-13T10:54:36;101500.16;;;23.46;76.43
54022;BME280;39936;51.058;17.220;2023-07-13T10:58:40;101496.62;;;23.59;77.53
54022;BME280;39936;51.058;17.220;2023-07-13T11:02:05;101492.84;;;23.82;77.59
54022;BME280;39936;51.058;17.220;2023-07-13T11:05:40;101486.24;;;24.07;74.42
54022;BME280;39936;51.058;17.220;2023-07-13T11:08:56;101472.98;;;23.99;72.25
54022;BME280;39936;51.058;17.220;2023-07-13T11:19:51;101456.21;;;23.93;73.23
54022;BME280;39936;51.058;17.220;2023-07-13T11:23:41;101486.64;;;24.00;67.95
54022;BME280;39936;51.058;17.220;2023-07-13T11:28:24;101489.25;;;24.00;69.21
54022;BME280;39936;51.058;17.220;2023-07-13T11:31:41;101487.73;;;23.89;66.46
54022;BME280;39936;51.058;17.220;2023-07-13T11:35:50;101492.09;;;23.51;71.16
54022;BME280;39936;51.058;17.220;2023-07-13T11:39:21;101482.98;;;23.51;70.12
54022;BME280;39936;51.058;17.220;2023-07-13T11:42:44;101485.10;;;23.76;68.07
54022;BME280;39936;51.058;17.220;2023-07-13T11:49:53;101477.62;;;23.39;70.20
54022;BME280;39936;51.058;17.220;2023-07-13T11:53:48;101483.88;;;23.53;70.73
54022;BME280;39936;51.058;17.220;2023-07-13T12:01:23;101486.57;;;23.68;64.12
54022;BME280;39936;51.058;17.220;2023-07-13T12:04:43;101488.20;;;23.70;64.68
54022;BME280;39936;51.058;17.220;2023-07-13T12:08:10;101491.21;;;23.74;65.50
54022;BME280;39936;51.058;17.220;2023-07-13T12:11:59;101493.32;;;23.74;65.99
54022;BME280;39936;51.058;17.220;2023-07-13T12:15:45;101492.59;;;23.90;65.40
54022;BME280;39936;51.058;17.220;2023-07-13T15:53:45;101398.38;;;25.31;48.03
54022;BME280;39936;51.058;17.220;2023-07-13T15:57:59;101400.25;;;25.31;44.65
54022;BME280;39936;51.058;17.220;2023-07-13T16:01:29;101403.46;;;25.08;46.10
54022;BME280;39936;51.058;17.220;2023-07-13T16:05:03;101422.56;;;25.17;47.59
54022;BME280;39936;51.058;17.220;2023-07-13T16:08:37;101426.12;;;24.28;50.99
54022;BME280;39936;51.058;17.220;2023-07-13T16:13:04;101432.09;;;24.01;54.10
54022;BME280;39936;51.058;17.220;2023-07-13T16:16:56;101453.06;;;23.89;54.55
54022;BME280;39936;51.058;17.220;2023-07-13T16:20:45;101463.70;;;23.52;56.05
54022;BME280;39936;51.058;17.220;2023-07-13T16:24:25;101464.50;;;23.40;56.88
54022;BME280;39936;51.058;17.220;2023-07-13T16:28:21;101466.22;;;23.30;57.30
54022;BME280;39936;51.058;17.220;2023-07-13T16:32:05;101470.31;;;23.42;57.66
54022;BME280;39936;51.058;17.220;2023-07-13T16:35:45;101450.29;;;23.27;57.11
54022;BME280;39936;51.058;17.220;2023-07-13T16:39:27;101472.02;;;23.41;57.56
54022;BME280;39936;51.058;17.220;2023-07-13T16:42:43;101444.83;;;22.99;60.31
54022;BME280;39936;51.058;17.220;2023-07-13T16:50:15;101477.05;;;23.11;63.02
54022;BME280;39936;51.058;17.220;2023-07-13T16:53:35;101479.01;;;22.92;62.93
54022;BME280;39936;51.058;17.220;2023-07-13T16:56:55;101477.69;;;22.78;63.70
54022;BME280;39936;51.058;17.220;2023-07-13T17:00:24;101460.45;;;22.45;62.94
54022;BME280;39936;51.058;17.220;2023-07-13T17:03:40;101481.07;;;22.42;64.14
54022;BME280;39936;51.058;17.220;2023-07-13T17:07:12;101486.66;;;22.30;64.72
54022;BME280;39936;51.058;17.220;2023-07-13T17:10:49;101489.54;;;22.19;65.46
54022;BME280;39936;51.058;17.220;2023-07-13T17:14:25;101490.87;;;21.98;67.28
54022;BME280;39936;51.058;17.220;2023-07-13T17:17:51;101494.85;;;21.85;68.48
54022;BME280;39936;51.058;17.220;2023-07-13T17:21:15;101492.26;;;21.80;70.11
54022;BME280;39936;51.058;17.220;2023-07-13T17:24:34;101490.09;;;21.79;71.26
54022;BME280;39936;51.058;17.220;2023-07-13T17:27:47;101488.16;;;21.78;71.75
54022;BME280;39936;51.058;17.220;2023-07-13T17:34:59;101497.87;;;21.70;71.55
54022;BME280;39936;51.058;17.220;2023-07-13T17:38:30;101494.70;;;21.68;71.71
54022;BME280;39936;51.058;17.220;2023-07-13T17:41:50;101491.53;;;21.53;72.94
54022;BME280;39936;51.058;17.220;2023-07-13T17:45:29;101499.26;;;21.54;71.98
54022;BME280;39936;51.058;17.220;2023-07-13T17:48:46;101481.20;;;21.44;72.64
54022;BME280;39936;51.058;17.220;2023-07-13T17:52:20;101506.59;;;21.68;72.22
54022;BME280;39936;51.058;17.220;2023-07-13T17:59:56;101499.70;;;22.00;70.22
54022;BME280;39936;51.058;17.220;2023-07-13T18:03:39;101506.28;;;22.09;69.57
54022;BME280;39936;51.058;17.220;2023-07-13T18:08:02;101495.19;;;22.08;69.69
54022;BME280;39936;51.058;17.220;2023-07-13T18:11:30;101507.67;;;22.26;69.44
54022;BME280;39936;51.058;17.220;2023-07-13T18:15:14;101504.91;;;22.36;69.04
54022;BME280;39936;51.058;17.220;2023-07-13T18:18:56;101514.49;;;22.50;68.64
54022;BME280;39936;51.058;17.220;2023-07-13T18:22:53;101515.53;;;22.43;67.30
54022;BME280;39936;51.058;17.220;2023-07-13T18:26:15;101519.20;;;22.28;66.50
54022;BME280;39936;51.058;17.220;2023-07-13T18:30:10;101529.98;;;22.29;66.82
54022;BME280;39936;51.058;17.220;2023-07-13T18:33:38;101531.76;;;22.22;67.28
54022;BME280;39936;51.058;17.220;2023-07-13T18:37:00;101531.09;;;22.14;68.05
54022;BME280;39936;51.058;17.220;2023-07-13T18:40:30;101531.85;;;22.02;68.88
54022;BME280;39936;51.058;17.220;2023-07-13T18:43:48;101541.34;;;21.92;69.36
54022;BME280;39936;51.058;17.220;2023-07-13T18:50:55;101536.03;;;21.67;71.07
54022;BME280;39936;51.058;17.220;2023-07-13T18:54:36;101547.03;;;21.52;72.75
54022;BME280;39936;51.058;17.220;2023-07-13T19:01:42;101552.54;;;21.27;75.70
54022;BME280;39936;51.058;17.220;2023-07-13T19:04:59;101550.06;;;21.09;85.20
54022;BME280;39936;51.058;17.220;2023-07-13T19:12:17;101556.42;;;20.36;85.93
54022;BME280;39936;51.058;17.220;2023-07-13T19:15:34;101629.33;;;20.38;93.20
54022;BME280;39936;51.058;17.220;2023-07-13T19:19:14;101654.04;;;20.14;84.91
54022;BME280;39936;51.058;17.220;2023-07-13T19:22:33;101684.13;;;19.56;83.57
54022;BME280;39936;51.058;17.220;2023-07-13T19:26:04;101712.05;;;18.70;85.60
54022;BME280;39936;51.058;17.220;2023-07-13T19:29:28;101726.64;;;18.08;88.29
54022;BME280;39936;51.058;17.220;2023-07-13T19:32:49;101711.61;;;17.84;92.25
54022;BME280;39936;51.058;17.220;2023-07-13T19:36:11;101681.60;;;17.60;93.17
54022;BME280;39936;51.058;17.220;2023-07-13T19:39:39;101670.29;;;17.52;94.82
54022;BME280;39936;51.058;17.220;2023-07-13T19:43:16;101663.57;;;17.35;98.35
54022;BME280;39936;51.058;17.220;2023-07-13T19:46:42;101660.88;;;17.07;100.00
54022;BME280;39936;51.058;17.220;2023-07-13T19:50:41;101668.87;;;17.05;100.00
54022;BME280;39936;51.058;17.220;2023-07-13T19:57:53;101669.99;;;16.77;100.00
54022;BME280;39936;51.058;17.220;2023-07-13T20:01:20;101671.41;;;16.75;100.00
54022;BME280;39936;51.058;17.220;2023-07-13T20:04:36;101666.02;;;16.66;100.00
54022;BME280;39936;51.058;17.220;2023-07-13T20:08:25;101660.66;;;16.63;100.00
54022;BME280;39936;51.058;17.220;2023-07-13T20:11:43;101686.03;;;16.62;100.00
54022;BME280;39936;51.058;17.220;2023-07-13T20:14:54;101693.13;;;16.62;100.00
54022;BME280;39936;51.058;17.220;2023-07-13T20:18:15;101699.39;;;16.67;100.00
54022;BME280;39936;51.058;17.220;2023-07-13T20:21:44;101698.80;;;16.67;100.00
54022;BME280;39936;51.058;17.220;2023-07-13T20:25:27;101696.02;;;16.71;100.00
54022;BME280;39936;51.058;17.220;2023-07-13T20:29:04;101709.92;;;16.72;100.00
54022;BME280;39936;51.058;17.220;2023-07-13T20:32:24;101751.66;;;16.75;100.00
54022;BME280;39936;51.058;17.220;2023-07-13T20:35:40;101745.99;;;16.56;100.00
54022;BME280;39936;51.058;17.220;2023-07-13T20:38:55;101761.67;;;16.40;100.00
54022;BME280;39936;51.058;17.220;2023-07-13T20:42:10;101715.68;;;16.11;100.00
54022;BME280;39936;51.058;17.220;2023-07-13T20:45:45;101717.16;;;16.34;100.00
54022;BME280;39936;51.058;17.220;2023-07-13T20:49:17;101713.70;;;16.29;100.00
54022;BME280;39936;51.058;17.220;2023-07-13T20:52:48;101705.82;;;16.23;100.00
54022;BME280;39936;51.058;17.220;2023-07-13T20:56:20;101687.52;;;16.10;100.00
54022;BME280;39936;51.058;17.220;2023-07-13T20:59:31;101689.40;;;16.06;100.00
54022;BME280;39936;51.058;17.220;2023-07-13T21:02:50;101692.27;;;16.11;100.00
54022;BME280;39936;51.058;17.220;2023-07-13T21:06:15;101669.82;;;15.97;100.00
54022;BME280;39936;51.058;17.220;2023-07-13T21:09:28;101663.95;;;15.81;100.00
54022;BME280;39936;51.058;17.220;2023-07-13T21:12:47;101695.35;;;15.92;100.00
54022;BME280;39936;51.058;17.220;2023-07-13T21:16:15;101697.84;;;15.92;100.00
54022;BME280;39936;51.058;17.220;2023-07-13T21:19:39;101702.85;;;15.90;100.00
54022;BME280;39936;51.058;17.220;2023-07-13T21:22:58;101706.88;;;15.89;100.00
54022;BME280;39936;51.058;17.220;2023-07-13T21:26:15;101710.69;;;15.89;100.00
54022;BME280;39936;51.058;17.220;2023-07-13T21:29:41;101711.93;;;15.77;100.00
54022;BME280;39936;51.058;17.220;2023-07-13T21:33:03;101713.27;;;15.66;100.00
54022;BME280;39936;51.058;17.220;2023-07-13T21:36:46;101711.72;;;15.63;100.00
54022;BME280;39936;51.058;17.220;2023-07-13T21:39:59;101720.76;;;15.63;100.00
54022;BME280;39936;51.058;17.220;2023-07-13T21:43:27;101694.40;;;15.46;100.00
54022;BME280;39936;51.058;17.220;2023-07-13T21:46:45;101715.73;;;15.53;100.00
54022;BME280;39936;51.058;17.220;2023-07-13T21:53:50;101712.52;;;15.35;100.00
54022;BME280;39936;51.058;17.220;2023-07-13T21:57:14;101721.78;;;15.33;100.00
54022;BME280;39936;51.058;17.220;2023-07-13T22:00:54;101716.27;;;15.27;100.00
54022;BME280;39936;51.058;17.220;2023-07-13T22:04:21;101717.55;;;15.23;100.00
54022;BME280;39936;51.058;17.220;2023-07-13T22:07:33;101714.98;;;15.20;100.00
54022;BME280;39936;51.058;17.220;2023-07-13T22:10:50;101715.95;;;15.19;100.00
54022;BME280;39936;51.058;17.220;2023-07-13T22:14:25;101718.37;;;15.10;100.00
54022;BME280;39936;51.058;17.220;2023-07-13T22:17:47;101715.52;;;15.09;100.00
54022;BME280;39936;51.058;17.220;2023-07-13T22:21:28;101716.99;;;15.07;100.00
54022;BME280;39936;51.058;17.220;2023-07-13T22:24:57;101720.89;;;15.02;100.00
54022;BME280;39936;51.058;17.220;2023-07-13T22:28:17;101722.17;;;14.97;100.00
54022;BME280;39936;51.058;17.220;2023-07-13T22:35:29;101733.12;;;14.86;100.00
54022;BME280;39936;51.058;17.220;2023-07-13T22:38:49;101743.43;;;14.79;100.00
54022;BME280;39936;51.058;17.220;2023-07-13T22:42:21;101750.64;;;14.70;100.00
54022;BME280;39936;51.058;17.220;2023-07-13T22:46:27;101750.19;;;14.63;100.00
54022;BME280;39936;51.058;17.220;2023-07-13T22:49:47;101755.05;;;14.49;100.00
54022;BME280;39936;51.058;17.220;2023-07-13T22:53:12;101754.31;;;14.46;100.00
54022;BME280;39936;51.058;17.220;2023-07-13T22:56:30;101750.10;;;14.41;100.00
54022;BME280;39936;51.058;17.220;2023-07-13T23:00:29;101754.02;;;14.40;100.00
54022;BME280;39936;51.058;17.220;2023-07-13T23:03:55;101752.99;;;14.37;100.00